Time;durP1;ratioP1;P1;durP2;ratioP2;P2;SDS_P1;SDS_P2;PMS_P1;PMS_P2;Temp;Humidity;BMP_temperature;BMP_pressure;BME280_temperature;BME280_humidity;BME280_pressure;Samples;Min_cycle;Max_cycle;Signal;HPM_P1;HPM_P2
2021/11/10 00:01:01;;;;;;;16.00;9.70;;;23.20;90.70;;;;;;2017082;69;21600;-71
2021/11/10 00:03:32;;;;;;;12.07;9.40;;;23.20;90.30;;;;;;2013280;70;21140;-70
2021/11/10 00:06:03;;;;;;;14.98;9.23;;;23.10;90.30;;;;;;2021185;70;21161;-70
2021/11/10 00:08:33;;;;;;;14.90;9.70;;;23.10;90.50;;;;;;2021609;70;21139;-70
2021/11/10 00:11:04;;;;;;;14.87;10.38;;;23.10;90.10;;;;;;1973474;71;21686;-70
2021/11/10 00:13:35;;;;;;;12.58;9.45;;;23.10;90.10;;;;;;2016337;69;21139;-70
2021/11/10 00:16:06;;;;;;;14.53;9.70;;;23.20;90.10;;;;;;2021986;69;21159;-70
2021/11/10 00:18:37;;;;;;;15.10;9.48;;;23.10;89.80;;;;;;1946443;72;21086;-70
2021/11/10 00:21:08;;;;;;;17.70;10.48;;;23.20;89.30;;;;;;1939415;73;21163;-71
2021/11/10 00:23:39;;;;;;;14.53;10.58;;;23.20;88.80;;;;;;1954814;72;21109;-70
2021/11/10 00:26:10;;;;;;;21.95;14.68;;;23.20;89.00;;;;;;1947032;72;21529;-70
2021/11/10 00:28:43;;;;;;;15.23;8.35;;;23.20;88.40;;;;;;1949126;72;21151;-71
2021/11/10 00:31:15;;;;;;;12.78;9.50;;;23.20;88.30;;;;;;2024968;69;21615;-70
2021/11/10 00:33:46;;;;;;;12.55;7.58;;;23.20;87.70;;;;;;2017991;69;21092;-70
2021/11/10 00:36:17;;;;;;;9.83;7.72;;;23.30;87.70;;;;;;1973518;72;21443;-70
2021/11/10 00:38:48;;;;;;;11.10;7.80;;;23.30;87.50;;;;;;2014824;69;21143;-70
2021/11/10 00:41:19;;;;;;;10.85;7.53;;;23.30;87.20;;;;;;2019910;69;21104;-70
2021/11/10 00:43:50;;;;;;;12.28;8.33;;;23.30;87.50;;;;;;2025433;69;21108;-70
2021/11/10 00:46:21;;;;;;;10.08;6.78;;;23.40;86.90;;;;;;2014170;70;21088;-70
2021/11/10 00:48:52;;;;;;;10.13;7.05;;;23.40;86.50;;;;;;2022947;69;21252;-69
2021/11/10 00:51:24;;;;;;;9.30;6.70;;;23.40;86.10;;;;;;2020393;69;21121;-69
2021/11/10 00:53:56;;;;;;;10.10;6.28;;;23.40;86.00;;;;;;2014993;70;21616;-69
2021/11/10 00:56:27;;;;;;;11.20;6.50;;;23.50;85.20;;;;;;2022591;70;21538;-69
2021/11/10 00:58:59;;;;;;;8.05;5.28;;;23.60;85.10;;;;;;1957891;70;22270;-70
2021/11/10 01:01:30;;;;;;;11.75;6.05;;;23.60;84.10;;;;;;1940843;73;21104;-70
2021/11/10 01:04:02;;;;;;;7.72;5.37;;;23.70;84.30;;;;;;2018123;69;21120;-70
2021/11/10 01:06:34;;;;;;;6.92;5.10;;;23.80;83.90;;;;;;2016368;70;21086;-70
2021/11/10 01:09:05;;;;;;;8.43;5.17;;;23.80;82.90;;;;;;2022626;69;21648;-70
2021/11/10 01:11:36;;;;;;;9.80;5.08;;;23.80;82.70;;;;;;2020115;69;21151;-71
2021/11/10 01:14:07;;;;;;;7.17;4.62;;;23.80;82.80;;;;;;2014801;70;21159;-71
2021/11/10 01:16:38;;;;;;;8.63;5.10;;;23.80;82.10;;;;;;2013281;69;21189;-70
2021/11/10 01:19:09;;;;;;;9.45;5.40;;;23.90;82.20;;;;;;2018128;69;21128;-70
2021/11/10 01:21:40;;;;;;;10.03;5.22;;;23.90;82.40;;;;;;2016868;69;21145;-72
2021/11/10 01:24:11;;;;;;;8.03;5.35;;;23.90;82.00;;;;;;2020319;69;21084;-71
2021/11/10 01:26:42;;;;;;;7.92;5.30;;;23.90;82.10;;;;;;1955432;72;21096;-71
2021/11/10 01:29:13;;;;;;;8.28;4.90;;;24.00;81.80;;;;;;2022202;69;21560;-70
2021/11/10 01:31:43;;;;;;;10.00;5.50;;;24.00;82.60;;;;;;1944426;72;21621;-71
2021/11/10 01:34:14;;;;;;;7.62;5.15;;;24.10;81.20;;;;;;1951279;72;21097;-69
2021/11/10 01:36:45;;;;;;;10.75;5.47;;;24.10;81.20;;;;;;1969102;72;21096;-68
2021/11/10 01:39:16;;;;;;;9.38;5.40;;;24.10;80.80;;;;;;2015885;70;21100;-70
2021/11/10 01:41:50;;;;;;;7.67;5.05;;;24.20;80.60;;;;;;2020053;70;21107;-69
2021/11/10 01:44:22;;;;;;;9.28;5.12;;;24.20;80.60;;;;;;2024688;70;21181;-69
2021/11/10 01:46:55;;;;;;;8.75;5.92;;;24.20;80.30;;;;;;2026693;69;21052;-70
2021/11/10 01:49:27;;;;;;;9.25;5.00;;;24.30;80.40;;;;;;1949278;73;21172;-70
2021/11/10 01:51:59;;;;;;;8.63;5.35;;;24.30;80.30;;;;;;2014553;69;21181;-70
2021/11/10 01:54:32;;;;;;;6.53;4.80;;;24.40;80.40;;;;;;1973223;72;21128;-70
2021/11/10 01:57:04;;;;;;;7.08;4.87;;;24.40;80.10;;;;;;2019604;70;21185;-70
2021/11/10 01:59:38;;;;;;;7.80;5.15;;;24.40;81.00;;;;;;2024025;69;21623;-69
2021/11/10 02:02:13;;;;;;;11.00;4.95;;;24.40;80.20;;;;;;2017643;70;21692;-70
2021/11/10 02:04:44;;;;;;;8.18;5.20;;;24.50;80.20;;;;;;2013724;69;21148;-68
2021/11/10 02:07:16;;;;;;;9.63;5.58;;;24.60;79.20;;;;;;2030806;70;21103;-69
2021/11/10 02:09:50;;;;;;;6.58;5.08;;;24.60;78.60;;;;;;2028149;70;21120;-68
2021/11/10 02:12:21;;;;;;;8.70;5.40;;;24.60;77.60;;;;;;1976646;72;21124;-69
2021/11/10 02:14:52;;;;;;;8.35;5.20;;;24.60;77.60;;;;;;1935844;72;21209;-69
2021/11/10 02:17:23;;;;;;;7.05;4.45;;;24.70;78.20;;;;;;2017914;69;21060;-70
2021/11/10 02:19:54;;;;;;;7.00;4.95;;;24.70;78.00;;;;;;1924994;74;21186;-69
2021/11/10 02:22:25;;;;;;;8.88;5.08;;;24.80;77.80;;;;;;2030060;70;21136;-69
2021/11/10 02:24:56;;;;;;;7.80;5.55;;;24.80;78.00;;;;;;2023831;70;21111;-70
2021/11/10 02:27:33;;;;;;;7.58;4.85;;;24.90;78.20;;;;;;2029674;70;21496;-70
2021/11/10 02:29:59;;;;;;;9.78;5.00;;;25.00;77.60;;;;;;2022918;70;21423;-71
2021/11/10 02:32:31;;;;;;;7.35;5.22;;;25.00;77.90;;;;;;2027133;69;21741;-71
2021/11/10 02:35:02;;;;;;;9.55;5.22;;;25.10;78.10;;;;;;2039905;70;21107;-71
2021/11/10 02:37:34;;;;;;;6.47;4.12;;;25.20;77.80;;;;;;2029787;70;21207;-71
2021/11/10 02:40:05;;;;;;;6.87;4.62;;;25.30;76.60;;;;;;2018497;70;21232;-70
2021/11/10 02:42:37;;;;;;;6.87;4.85;;;25.30;75.90;;;;;;2029557;70;21255;-71
2021/11/10 02:45:29;;;;;;;6.40;4.70;;;25.30;76.20;;;;;;2020224;69;21094;-71
2021/11/10 02:48:00;;;;;;;12.47;4.92;;;25.30;76.40;;;;;;1961593;72;21615;-70
2021/11/10 02:50:33;;;;;;;8.40;5.00;;;25.40;77.20;;;;;;1964351;71;21642;-71
2021/11/10 02:53:04;;;;;;;8.33;4.50;;;25.50;76.70;;;;;;1966538;71;21073;-72
2021/11/10 02:55:35;;;;;;;7.60;4.72;;;25.60;76.30;;;;;;1944823;72;21128;-71
2021/11/10 02:58:06;;;;;;;6.67;4.78;;;25.60;75.80;;;;;;1938367;73;21089;-71
2021/11/10 03:00:38;;;;;;;9.58;4.97;;;25.60;75.90;;;;;;1939171;73;21171;-71
2021/11/10 03:03:16;;;;;;;6.05;4.40;;;25.70;75.50;;;;;;1941125;73;21049;-71
2021/11/10 03:05:48;;;;;;;7.97;4.70;;;25.70;75.40;;;;;;1937167;73;21182;-69
2021/11/10 03:08:21;;;;;;;13.48;5.08;;;25.70;75.90;;;;;;1939093;73;21761;-70
2021/11/10 03:10:53;;;;;;;7.90;4.90;;;25.80;75.10;;;;;;1935602;73;21058;-71
2021/11/10 03:13:25;;;;;;;6.17;4.30;;;25.80;75.10;;;;;;1878093;75;21201;-70
2021/11/10 03:15:57;;;;;;;9.25;5.08;;;25.90;74.90;;;;;;1876700;76;21202;-69
2021/11/10 03:18:28;;;;;;;8.53;4.87;;;25.90;75.50;;;;;;1969787;72;21111;-69
2021/11/10 03:21:00;;;;;;;6.55;4.47;;;26.00;74.90;;;;;;1949730;72;21084;-69
2021/11/10 03:23:30;;;;;;;6.60;4.28;;;26.10;74.50;;;;;;1955626;72;21639;-70
2021/11/10 03:26:01;;;;;;;8.30;4.30;;;26.20;75.00;;;;;;1954452;72;21536;-70
2021/11/10 03:28:32;;;;;;;8.05;4.22;;;26.30;73.70;;;;;;1942125;73;21109;-69
2021/11/10 03:31:03;;;;;;;7.78;4.47;;;26.40;73.30;;;;;;1938935;73;21883;-70
2021/11/10 03:33:34;;;;;;;6.15;4.33;;;26.50;72.80;;;;;;1941946;73;21698;-70
2021/11/10 03:36:05;;;;;;;7.37;4.30;;;26.50;73.20;;;;;;1941868;73;21158;-70
2021/11/10 03:38:36;;;;;;;5.60;4.08;;;26.60;72.40;;;;;;1939488;73;21121;-70
2021/11/10 03:41:07;;;;;;;7.62;3.92;;;26.70;71.50;;;;;;1941347;73;21100;-69
2021/11/10 03:43:38;;;;;;;5.95;4.12;;;26.80;72.10;;;;;;1936181;73;21202;-70
2021/11/10 03:46:08;;;;;;;6.65;4.50;;;26.90;72.70;;;;;;1943514;72;21108;-70
2021/11/10 03:48:41;;;;;;;8.30;4.20;;;27.10;71.80;;;;;;1955288;72;21158;-70
2021/11/10 03:51:12;;;;;;;8.50;4.42;;;27.20;71.30;;;;;;1900618;74;21460;-71
2021/11/10 03:53:43;;;;;;;8.08;4.60;;;27.30;71.40;;;;;;1961138;70;21704;-71
2021/11/10 03:56:14;;;;;;;8.68;4.35;;;27.40;71.30;;;;;;1963677;70;21132;-70
2021/11/10 03:58:45;;;;;;;8.58;4.25;;;27.40;70.30;;;;;;1964400;70;21088;-71
2021/11/10 04:01:16;;;;;;;9.58;3.70;;;27.50;70.20;;;;;;1972169;70;21197;-70
2021/11/10 04:03:47;;;;;;;6.87;3.75;;;27.60;69.60;;;;;;1957450;70;21162;-71
2021/11/10 04:06:18;;;;;;;4.72;3.37;;;27.60;69.90;;;;;;1950683;70;21444;-71
2021/11/10 04:08:51;;;;;;;8.30;3.85;;;27.60;69.30;;;;;;1951682;71;21558;-71
2021/11/10 04:11:21;;;;;;;6.75;4.35;;;27.70;68.60;;;;;;1955012;73;21603;-71
2021/11/10 04:13:53;;;;;;;6.25;3.95;;;27.70;69.60;;;;;;1935735;73;21087;-71
2021/11/10 04:16:24;;;;;;;5.83;3.72;;;27.70;68.50;;;;;;1965588;72;21516;-71
2021/11/10 04:18:57;;;;;;;9.68;4.30;;;27.80;68.90;;;;;;1964196;72;21112;-71
2021/11/10 04:21:28;;;;;;;6.30;3.67;;;27.80;68.70;;;;;;1954809;72;21139;-71
2021/11/10 04:23:58;;;;;;;5.50;3.55;;;;;;;;;;1954231;71;21112;-71
2021/11/10 04:26:31;;;;;;;6.15;3.58;;;28.00;67.80;;;;;;1894780;75;21128;-70
2021/11/10 04:29:03;;;;;;;6.33;4.28;;;28.00;67.60;;;;;;1902007;73;21959;-70
2021/11/10 04:31:34;;;;;;;8.08;4.17;;;28.00;66.90;;;;;;1970167;72;21049;-68
2021/11/10 04:34:05;;;;;;;6.90;4.33;;;28.10;67.00;;;;;;1946380;72;21126;-68
2021/11/10 04:36:36;;;;;;;5.50;3.52;;;28.10;66.70;;;;;;1963216;72;21190;-68
2021/11/10 04:39:07;;;;;;;6.42;3.52;;;28.30;65.70;;;;;;1980330;72;21115;-68
2021/11/10 04:41:38;;;;;;;8.05;3.45;;;28.40;65.50;;;;;;1964747;72;21120;-68
2021/11/10 04:44:09;;;;;;;7.05;3.27;;;28.50;65.20;;;;;;1965139;72;21699;-69
2021/11/10 04:46:40;;;;;;;7.05;3.50;;;28.70;65.20;;;;;;1959531;72;21206;-68
2021/11/10 04:49:10;;;;;;;7.55;3.70;;;28.70;64.10;;;;;;1946925;72;21646;-69
2021/11/10 04:51:42;;;;;;;7.10;3.50;;;28.70;63.80;;;;;;1962131;71;21153;-69
2021/11/10 04:54:18;;;;;;;7.37;3.65;;;28.70;64.20;;;;;;1969040;71;21053;-68
2021/11/10 04:56:45;;;;;;;7.15;3.50;;;28.80;64.60;;;;;;1951883;72;21075;-69
2021/11/10 04:59:16;;;;;;;7.12;4.08;;;28.80;63.90;;;;;;1960199;72;21182;-68
2021/11/10 05:04:19;;;;;;;7.90;3.85;;;28.80;63.40;;;;;;1965166;72;21525;-69
2021/11/10 05:06:50;;;;;;;9.70;3.85;;;28.80;63.60;;;;;;1948659;72;22025;-68
2021/11/10 05:09:20;;;;;;;5.45;3.15;;;28.90;63.00;;;;;;1954247;72;21988;-68
2021/11/10 05:11:51;;;;;;;6.75;3.75;;;28.90;63.00;;;;;;1901872;74;21163;-67
2021/11/10 05:14:22;;;;;;;7.42;3.77;;;29.00;62.60;;;;;;1971357;72;21122;-67
2021/11/10 05:16:53;;;;;;;7.58;3.85;;;29.00;62.50;;;;;;1951569;72;21105;-68
2021/11/10 05:19:24;;;;;;;7.03;3.40;;;29.00;62.10;;;;;;1962081;71;21143;-67
2021/11/10 05:21:55;;;;;;;5.92;3.27;;;29.10;62.80;;;;;;1973347;72;21205;-67
2021/11/10 05:24:26;;;;;;;7.10;3.10;;;29.20;62.20;;;;;;1974088;72;21080;-68
2021/11/10 05:26:57;;;;;;;6.75;3.47;;;29.30;61.50;;;;;;1957070;71;21191;-67
2021/11/10 05:29:28;;;;;;;9.85;3.50;;;29.30;61.60;;;;;;1948255;73;21170;-68
2021/11/10 05:31:59;;;;;;;6.00;2.98;;;29.30;61.30;;;;;;1941608;73;21517;-68
2021/11/10 05:34:30;;;;;;;6.33;3.30;;;29.30;61.60;;;;;;1943977;72;21112;-69
2021/11/10 05:37:00;;;;;;;8.90;3.27;;;29.30;61.50;;;;;;1955117;72;21201;-68
2021/11/10 05:39:31;;;;;;;5.25;3.52;;;29.30;61.50;;;;;;1942843;73;21210;-68
2021/11/10 05:42:04;;;;;;;4.70;2.95;;;29.30;60.90;;;;;;1950980;73;21177;-69
2021/11/10 05:44:35;;;;;;;7.60;3.60;;;29.40;61.10;;;;;;1957614;72;21147;-68
2021/11/10 05:47:06;;;;;;;6.60;3.30;;;29.40;61.90;;;;;;1969550;72;21205;-69
2021/11/10 05:49:37;;;;;;;5.47;2.80;;;29.50;60.90;;;;;;1938008;73;21116;-67
2021/11/10 05:52:09;;;;;;;6.22;3.22;;;29.50;61.00;;;;;;1934381;73;21124;-69
2021/11/10 05:54:40;;;;;;;5.90;3.50;;;29.50;61.00;;;;;;1924875;73;21129;-68
2021/11/10 05:57:13;;;;;;;6.45;3.22;;;29.50;60.80;;;;;;1871112;75;21171;-68
2021/11/10 05:59:45;;;;;;;6.75;3.08;;;29.50;61.80;;;;;;1949909;73;21140;-68
2021/11/10 06:02:16;;;;;;;6.62;3.17;;;29.60;61.40;;;;;;1938042;73;21143;-68
2021/11/10 06:04:47;;;;;;;9.43;3.30;;;29.60;60.50;;;;;;1930642;73;21097;-69
2021/11/10 06:07:17;;;;;;;6.30;3.15;;;29.60;60.30;;;;;;1927002;73;21652;-69
2021/11/10 06:09:48;;;;;;;18.52;7.05;;;29.60;60.60;;;;;;1939258;73;21077;-68
2021/11/10 06:12:19;;;;;;;6.50;3.33;;;29.70;61.40;;;;;;1935906;73;21065;-69
2021/11/10 06:14:50;;;;;;;5.50;3.47;;;29.80;61.10;;;;;;1931611;73;22111;-69
2021/11/10 06:17:20;;;;;;;6.92;3.52;;;29.80;60.80;;;;;;1935865;73;21105;-68
2021/11/10 06:19:51;;;;;;;7.17;3.42;;;29.80;60.90;;;;;;1934506;73;21241;-69
2021/11/10 06:22:22;;;;;;;7.92;4.12;;;29.80;60.70;;;;;;1934232;73;21112;-68
2021/11/10 06:24:53;;;;;;;7.62;3.52;;;29.80;60.80;;;;;;1932754;73;21112;-69
2021/11/10 06:27:25;;;;;;;7.10;3.25;;;29.80;60.10;;;;;;1933976;73;21199;-69
2021/11/10 06:29:57;;;;;;;6.22;4.45;;;29.70;60.60;;;;;;1930246;73;21648;-69
2021/11/10 06:32:28;;;;;;;6.90;4.33;;;29.70;60.70;;;;;;1931175;73;21152;-69
2021/11/10 06:34:59;;;;;;;7.83;4.10;;;29.60;61.30;;;;;;1933862;73;21209;-70
2021/11/10 06:37:29;;;;;;;10.28;4.67;;;29.60;61.80;;;;;;1929690;73;21155;-68
2021/11/10 06:40:01;;;;;;;4.50;3.72;;;29.60;61.70;;;;;;1937217;73;21194;-68
2021/11/10 06:42:31;;;;;;;6.90;3.30;;;29.70;61.80;;;;;;1931570;73;21117;-68
2021/11/10 06:45:03;;;;;;;5.85;3.60;;;29.70;60.90;;;;;;1943753;73;21197;-68
2021/11/10 06:47:35;;;;;;;6.17;3.50;;;29.70;61.20;;;;;;1941784;73;21050;-68
2021/11/10 06:50:07;;;;;;;5.50;3.90;;;29.70;61.50;;;;;;1947501;72;21088;-68
2021/11/10 06:52:39;;;;;;;9.80;4.20;;;29.80;61.10;;;;;;1960448;72;21572;-68
2021/11/10 06:55:10;;;;;;;8.83;3.90;;;29.80;61.30;;;;;;1965239;72;21140;-69
2021/11/10 06:57:41;;;;;;;5.05;3.40;;;29.70;61.80;;;;;;1954527;72;22139;-69
2021/11/10 07:00:17;;;;;;;6.37;3.55;;;29.70;61.30;;;;;;1947780;72;21122;-69
2021/11/10 07:02:46;;;;;;;6.40;3.62;;;29.70;61.00;;;;;;1961187;72;21351;-68
2021/11/10 07:05:17;;;;;;;5.72;3.62;;;29.60;61.30;;;;;;1957045;72;21120;-68
2021/11/10 07:07:47;;;;;;;9.10;4.00;;;29.60;61.80;;;;;;1964620;71;21096;-69
2021/11/10 07:10:19;;;;;;;6.00;3.50;;;29.60;61.70;;;;;;1967768;72;21508;-71
2021/11/10 07:12:50;;;;;;;5.70;3.60;;;29.60;61.70;;;;;;1957924;70;21488;-72
2021/11/10 07:15:21;;;;;;;5.92;3.83;;;29.60;61.90;;;;;;1954385;71;21536;-71
2021/11/10 07:17:52;;;;;;;7.53;3.65;;;29.70;61.60;;;;;;1959176;72;21088;-71
2021/11/10 07:20:25;;;;;;;6.83;3.60;;;29.70;61.90;;;;;;1963410;72;21559;-72
2021/11/10 07:23:00;;;;;;;7.47;3.75;;;29.70;61.40;;;;;;1965465;70;21104;-72
2021/11/10 07:25:30;;;;;;;6.72;4.15;;;29.70;61.80;;;;;;1929427;74;21549;-71
2021/11/10 07:28:01;;;;;;;7.90;3.98;;;29.70;61.80;;;;;;1879263;74;21058;-71
2021/11/10 07:30:32;;;;;;;7.67;3.77;;;29.60;61.80;;;;;;1873848;75;21149;-72
2021/11/10 07:33:12;;;;;;;7.30;4.42;;;29.60;61.80;;;;;;1949030;72;21227;-70
2021/11/10 07:35:43;;;;;;;9.55;3.70;;;29.50;62.00;;;;;;1963134;72;21167;-71
2021/11/10 07:38:19;;;;;;;6.80;3.70;;;29.60;62.80;;;;;;1977587;72;21171;-71
2021/11/10 07:40:48;;;;;;;7.65;4.00;;;29.50;62.30;;;;;;1945991;72;21061;-70
2021/11/10 07:43:19;;;;;;;9.23;3.85;;;29.50;62.40;;;;;;1945730;72;21582;-71
2021/11/10 07:45:53;;;;;;;5.10;3.17;;;29.50;62.30;;;;;;1956850;72;21178;-71
2021/11/10 07:48:24;;;;;;;8.60;4.10;;;29.50;61.80;;;;;;1966915;72;21233;-68
2021/11/10 07:50:55;;;;;;;15.72;10.75;;;29.50;62.30;;;;;;1961006;72;21268;-69
2021/11/10 07:53:27;;;;;;;6.45;3.90;;;29.50;62.30;;;;;;1974537;72;21069;-71
2021/11/10 07:55:57;;;;;;;10.18;6.28;;;29.50;61.90;;;;;;1967655;72;21588;-71
2021/11/10 07:58:28;;;;;;;6.83;4.12;;;29.50;62.10;;;;;;1949683;72;21647;-69
2021/11/10 08:01:00;;;;;;;9.03;4.42;;;29.50;62.20;;;;;;1951662;72;21189;-70
2021/11/10 08:03:31;;;;;;;7.42;3.52;;;29.60;62.70;;;;;;1905186;74;21218;-71
2021/11/10 08:06:03;;;;;;;7.10;3.42;;;29.50;62.30;;;;;;1909618;74;21216;-70
2021/11/10 08:08:34;;;;;;;7.33;3.85;;;29.50;62.50;;;;;;1907368;74;21162;-70
2021/11/10 08:11:05;;;;;;;6.75;3.33;;;29.50;62.20;;;;;;1897143;74;21205;-71
2021/11/10 08:13:36;;;;;;;6.53;3.12;;;29.50;62.60;;;;;;1893967;75;21139;-70
2021/11/10 08:16:07;;;;;;;6.25;3.70;;;29.50;62.60;;;;;;1898603;74;21186;-70
2021/11/10 08:18:37;;;;;;;8.80;3.83;;;29.50;62.90;;;;;;1881787;75;21163;-70
2021/11/10 08:21:10;;;;;;;5.97;3.50;;;29.50;63.20;;;;;;1921817;74;21612;-70
2021/11/10 08:23:40;;;;;;;5.28;3.70;;;29.50;63.10;;;;;;1895435;75;21205;-70
2021/11/10 08:26:11;;;;;;;9.35;3.58;;;29.50;63.20;;;;;;1888509;75;21178;-70
2021/11/10 08:28:42;;;;;;;5.83;3.45;;;29.50;63.30;;;;;;1946719;73;21283;-70
2021/11/10 08:31:13;;;;;;;6.15;3.20;;;29.50;63.20;;;;;;1952622;73;21109;-69
2021/11/10 08:33:44;;;;;;;5.45;3.52;;;29.50;63.40;;;;;;1950319;73;21119;-71
2021/11/10 08:36:14;;;;;;;7.22;3.60;;;29.50;63.30;;;;;;1945537;72;21116;-70
2021/11/10 08:38:45;;;;;;;7.12;3.75;;;29.50;63.60;;;;;;1894573;73;21076;-70
2021/11/10 08:41:20;;;;;;;5.28;3.55;;;29.50;63.60;;;;;;1898340;75;21587;-70
2021/11/10 08:43:49;;;;;;;7.78;3.62;;;29.50;63.70;;;;;;1891590;75;21298;-70
2021/11/10 08:46:22;;;;;;;6.80;3.87;;;29.50;63.70;;;;;;1970940;72;21138;-70
2021/11/10 08:48:54;;;;;;;5.03;3.42;;;29.40;63.60;;;;;;1964089;72;21189;-72
2021/11/10 08:51:25;;;;;;;7.20;3.83;;;29.40;64.30;;;;;;1957179;72;21216;-70
2021/11/10 08:53:56;;;;;;;6.90;3.52;;;29.40;63.60;;;;;;1957522;72;21045;-69
2021/11/10 08:56:27;;;;;;;6.10;4.60;;;29.30;63.70;;;;;;1909313;73;21077;-70
2021/11/10 08:58:59;;;;;;;11.22;5.05;;;29.30;63.70;;;;;;1925394;72;21147;-70
2021/11/10 09:01:30;;;;;;;7.47;4.20;;;29.20;64.30;;;;;;1891000;73;21163;-70
2021/11/10 09:04:01;;;;;;;7.58;3.58;;;29.10;64.50;;;;;;1980113;72;21156;-70
2021/11/10 09:06:33;;;;;;;7.60;4.37;;;29.10;64.60;;;;;;1958098;72;21132;-69
2021/11/10 09:09:04;;;;;;;7.22;3.90;;;29.00;64.80;;;;;;1953017;72;21210;-69
2021/11/10 09:11:35;;;;;;;6.28;4.10;;;28.90;65.00;;;;;;1969674;71;21517;-71
2021/11/10 09:14:06;;;;;;;9.93;4.12;;;28.90;65.40;;;;;;1962087;72;22201;-70
2021/11/10 09:16:37;;;;;;;7.60;3.62;;;28.80;65.80;;;;;;1963208;72;21801;-70
2021/11/10 09:19:09;;;;;;;5.97;4.58;;;28.80;66.00;;;;;;2001625;71;21511;-70
2021/11/10 09:21:40;;;;;;;5.47;3.77;;;28.80;66.10;;;;;;1954943;72;21112;-70
2021/11/10 09:24:12;;;;;;;7.87;4.37;;;28.80;66.20;;;;;;1952431;72;21127;-69
2021/11/10 09:26:43;;;;;;;7.53;3.70;;;28.80;66.30;;;;;;1959067;72;21147;-70
2021/11/10 09:29:16;;;;;;;7.67;4.05;;;28.70;66.50;;;;;;1983963;72;21088;-70
2021/11/10 09:31:48;;;;;;;12.00;6.20;;;28.70;66.70;;;;;;1985084;72;21166;-70
2021/11/10 09:34:19;;;;;;;7.83;4.53;;;28.70;67.10;;;;;;1961697;72;21608;-70
2021/11/10 09:36:50;;;;;;;7.53;4.50;;;28.60;66.80;;;;;;1958422;72;21548;-71
2021/11/10 09:39:24;;;;;;;8.68;4.33;;;28.60;66.60;;;;;;1986388;72;21710;-71
2021/11/10 09:41:57;;;;;;;6.12;3.87;;;28.50;66.70;;;;;;1982688;72;21221;-70
2021/11/10 09:44:28;;;;;;;9.18;4.12;;;28.50;67.10;;;;;;1967655;72;21402;-71
2021/11/10 09:47:00;;;;;;;6.50;4.12;;;28.50;67.30;;;;;;1988091;71;21543;-77
2021/11/10 09:49:31;;;;;;;9.00;4.70;;;28.50;67.50;;;;;;1958565;72;21131;-78
2021/11/10 09:52:03;;;;;;;5.97;4.30;;;28.40;67.80;;;;;;1949270;72;21112;-78
2021/11/10 09:54:35;;;;;;;6.90;4.20;;;28.40;68.20;;;;;;1964756;72;21151;-78
2021/11/10 09:57:07;;;;;;;8.35;4.45;;;28.40;68.50;;;;;;1888709;73;21590;-78
2021/11/10 09:59:39;;;;;;;7.00;4.35;;;28.30;68.70;;;;;;1878062;75;21092;-77
2021/11/10 10:02:13;;;;;;;8.98;5.17;;;28.30;69.30;;;;;;1879197;73;21151;-78
2021/11/10 10:04:46;;;;;;;8.70;4.53;;;28.30;69.40;;;;;;1900926;75;21136;-77
2021/11/10 10:07:19;;;;;;;7.37;4.78;;;28.20;69.30;;;;;;1903139;75;21148;-78
2021/11/10 10:09:59;;;;;;;8.83;4.55;;;28.20;69.40;;;;;;1894328;75;21131;-78
2021/11/10 10:12:34;;;;;;;7.15;4.42;;;28.10;69.30;;;;;;1915385;74;21167;-78
2021/11/10 10:15:09;;;;;;;7.33;4.67;;;28.10;70.00;;;;;;1926166;74;21134;-77
2021/11/10 10:17:44;;;;;;;12.03;5.90;;;28.00;70.20;;;;;;1875659;75;21197;-78
2021/11/10 10:20:18;;;;;;;9.38;5.55;;;28.00;70.40;;;;;;1907539;74;21104;-77
2021/11/10 10:22:50;;;;;;;7.45;4.80;;;28.00;70.70;;;;;;1906056;74;21242;-78
2021/11/10 10:25:23;;;;;;;8.75;4.70;;;27.90;71.00;;;;;;1912564;74;21276;-79
2021/11/10 10:27:56;;;;;;;9.75;5.78;;;27.90;71.20;;;;;;1919126;74;21624;-78
2021/11/10 10:30:28;;;;;;;9.98;5.80;;;27.90;71.40;;;;;;1921742;74;21210;-78
2021/11/10 10:33:02;;;;;;;14.38;5.90;;;27.80;71.50;;;;;;1899603;74;21758;-78
2021/11/10 10:35:34;;;;;;;11.18;5.85;;;27.80;71.90;;;;;;1920176;74;21113;-78
2021/11/10 10:38:07;;;;;;;7.60;5.72;;;27.80;72.20;;;;;;1918473;74;21100;-78
2021/11/10 10:40:40;;;;;;;11.12;6.00;;;27.70;72.20;;;;;;1913729;74;21077;-78
2021/11/10 10:43:12;;;;;;;10.00;6.45;;;27.70;72.60;;;;;;1910946;74;21525;-78
2021/11/10 10:45:46;;;;;;;9.85;6.80;;;27.60;72.70;;;;;;1907768;74;21608;-78
2021/11/10 10:48:22;;;;;;;17.55;7.90;;;27.60;72.90;;;;;;1907483;75;21231;-78
2021/11/10 10:50:56;;;;;;;14.63;8.98;;;27.60;73.20;;;;;;1921511;74;21528;-78
2021/11/10 10:53:30;;;;;;;13.25;9.70;;;27.60;73.20;;;;;;1937820;74;21218;-78
2021/11/10 10:56:03;;;;;;;19.50;11.33;;;27.50;73.10;;;;;;1925381;73;21668;-78
2021/11/10 10:58:36;;;;;;;18.82;12.53;;;27.50;73.30;;;;;;1942189;73;21637;-78
2021/11/10 11:01:10;;;;;;;15.65;10.72;;;27.50;73.20;;;;;;1945386;73;21690;-78
2021/11/10 11:03:42;;;;;;;17.12;10.53;;;27.50;73.70;;;;;;1948770;73;21119;-78
2021/11/10 11:06:15;;;;;;;14.55;7.83;;;27.50;73.80;;;;;;1940748;73;21186;-78
2021/11/10 11:08:47;;;;;;;15.25;8.60;;;27.50;73.90;;;;;;1947233;73;21104;-79
2021/11/10 11:11:24;;;;;;;12.33;8.45;;;27.50;73.90;;;;;;1946735;73;21131;-78
2021/11/10 11:13:58;;;;;;;18.98;9.63;;;27.40;73.90;;;;;;1945011;73;21563;-78
2021/11/10 11:16:29;;;;;;;14.73;9.43;;;27.40;74.10;;;;;;1941259;73;21112;-78
2021/11/10 11:19:02;;;;;;;16.23;9.33;;;27.40;74.20;;;;;;1934310;73;21634;-79
2021/11/10 11:21:33;;;;;;;12.45;9.03;;;27.40;74.20;;;;;;1841270;75;21564;-79
2021/11/10 11:24:04;;;;;;;15.95;9.98;;;27.30;74.40;;;;;;1938685;73;21198;-79
2021/11/10 11:26:37;;;;;;;14.35;9.20;;;27.30;74.60;;;;;;1930388;73;21147;-78
2021/11/10 11:29:11;;;;;;;14.85;9.40;;;27.30;74.60;;;;;;1924237;73;21125;-78
2021/11/10 11:31:42;;;;;;;15.58;8.93;;;27.30;74.70;;;;;;1934648;73;21642;-77
2021/11/10 11:34:13;;;;;;;17.17;10.65;;;27.30;74.80;;;;;;1938077;73;21152;-78
2021/11/10 11:36:47;;;;;;;16.17;8.48;;;27.20;74.90;;;;;;1931542;73;21069;-78
2021/11/10 11:39:19;;;;;;;13.38;8.63;;;27.20;75.30;;;;;;1925123;73;21171;-78
2021/11/10 11:41:52;;;;;;;15.35;8.33;;;27.20;75.10;;;;;;1931926;73;21641;-78
2021/11/10 11:44:24;;;;;;;16.10;9.55;;;27.20;75.00;;;;;;1939374;73;21999;-77
2021/11/10 11:46:55;;;;;;;18.37;9.43;;;27.20;75.00;;;;;;1941061;73;21680;-77
2021/11/10 11:49:25;;;;;;;16.45;9.63;;;27.10;74.90;;;;;;1947412;73;21073;-78
2021/11/10 11:51:59;;;;;;;14.28;9.30;;;27.10;75.00;;;;;;1937248;73;21120;-77
2021/11/10 11:54:30;;;;;;;16.90;10.48;;;27.10;75.10;;;;;;1929401;73;22239;-78
2021/11/10 11:57:03;;;;;;;17.67;8.98;;;27.10;75.10;;;;;;1933848;73;21132;-79
2021/11/10 11:59:36;;;;;;;17.90;9.10;;;27.10;75.10;;;;;;1935061;73;21506;-78
2021/11/10 12:02:09;;;;;;;19.37;9.93;;;27.00;74.90;;;;;;1933740;73;21150;-78
2021/11/10 12:04:40;;;;;;;14.18;9.30;;;27.00;75.10;;;;;;1936318;73;21222;-78
2021/11/10 12:07:10;;;;;;;19.30;10.70;;;27.00;75.00;;;;;;1939799;73;21111;-78
2021/11/10 12:10:01;;;;;;;19.23;11.68;;;27.00;75.10;;;;;;1944633;73;21682;-78
2021/11/10 12:12:35;;;;;;;19.05;11.85;;;27.00;75.40;;;;;;1980302;71;21160;-78
2021/11/10 12:15:06;;;;;;;21.50;12.47;;;27.00;75.50;;;;;;1978822;70;21603;-78
2021/11/10 12:17:39;;;;;;;24.00;14.13;;;27.00;75.50;;;;;;1970695;72;21111;-79
2021/11/10 12:20:11;;;;;;;23.60;12.00;;;26.90;76.60;;;;;;1965153;72;21271;-79
2021/11/10 12:22:46;;;;;;;23.98;14.83;;;26.90;76.00;;;;;;1976629;72;21139;-78
2021/11/10 12:25:18;;;;;;;17.95;11.35;;;26.90;76.10;;;;;;1974736;71;21514;-79
2021/11/10 12:27:48;;;;;;;16.80;10.78;;;26.90;76.10;;;;;;1985605;71;21197;-79
2021/11/10 12:30:27;;;;;;;18.37;11.15;;;26.80;76.10;;;;;;1977602;72;21132;-78
2021/11/10 12:32:58;;;;;;;19.60;12.78;;;26.80;76.20;;;;;;1989991;71;21166;-77
2021/11/10 12:35:32;;;;;;;19.27;11.28;;;26.80;76.30;;;;;;1987023;71;21598;-80
2021/11/10 12:38:05;;;;;;;19.25;10.40;;;26.70;76.50;;;;;;1971635;70;21116;-79
2021/11/10 12:40:39;;;;;;;17.92;10.72;;;26.80;76.70;;;;;;1966728;71;21501;-80
2021/11/10 12:43:12;;;;;;;21.12;11.93;;;26.70;76.70;;;;;;1974844;72;21069;-80
2021/11/10 12:45:45;;;;;;;19.32;11.90;;;26.70;76.80;;;;;;1971505;72;21104;-78
2021/11/10 12:48:18;;;;;;;23.02;11.90;;;26.70;77.10;;;;;;1973548;72;21271;-78
2021/11/10 12:50:53;;;;;;;17.57;11.95;;;26.70;77.40;;;;;;1971347;72;21124;-79
2021/11/10 12:53:24;;;;;;;22.20;13.05;;;26.70;77.30;;;;;;1977180;72;21159;-79
2021/11/10 12:55:58;;;;;;;20.60;13.78;;;26.60;77.80;;;;;;1981942;71;21125;-79
2021/11/10 12:58:30;;;;;;;22.65;13.45;;;26.60;78.10;;;;;;1965670;72;21222;-79
2021/11/10 13:01:03;;;;;;;27.07;15.10;;;26.60;78.80;;;;;;1967420;71;21097;-78
2021/11/10 13:03:36;;;;;;;23.38;14.85;;;26.50;78.70;;;;;;1963815;72;21055;-79
2021/11/10 13:06:09;;;;;;;26.00;15.25;;;26.50;79.00;;;;;;1995206;72;21066;-80
2021/11/10 13:08:50;;;;;;;24.72;15.88;;;26.40;79.10;;;;;;1976597;72;21107;-78